createdAt,value
2022-11-17T00:00:43.008Z,3.78
2022-11-17T00:03:17.706Z,3.80
2022-11-17T00:05:45.145Z,3.90
2022-11-17T00:08:12.450Z,3.40
2022-11-17T00:10:39.553Z,3.28
2022-11-17T00:13:25.026Z,3.40
2022-11-17T00:15:52.087Z,3.38
2022-11-17T00:18:37.576Z,3.00
2022-11-17T00:21:21.653Z,3.10
2022-11-17T00:23:50.383Z,2.67
2022-11-17T00:26:21.195Z,3.22
2022-11-17T00:28:55.810Z,2.80
2022-11-17T00:31:44.051Z,2.80
2022-11-17T00:34:18.932Z,2.60
2022-11-17T00:36:52.300Z,2.63
2022-11-17T00:39:21.961Z,2.90
2022-11-17T00:41:49.188Z,2.53
2022-11-17T00:44:16.829Z,2.90
2022-11-17T00:46:44.115Z,2.80
2022-11-17T00:49:12.361Z,2.65
2022-11-17T00:51:42.373Z,3.00
2022-11-17T00:54:12.962Z,2.80
2022-11-17T00:56:40.419Z,2.63
2022-11-17T00:59:07.469Z,2.22
2022-11-17T01:01:34.904Z,2.22
2022-11-17T01:04:05.699Z,2.63
2022-11-17T01:06:53.022Z,2.80
2022-11-17T01:09:23.571Z,2.30
2022-11-17T01:11:53.017Z,2.50
2022-11-17T01:14:29.180Z,2.40
2022-11-17T01:16:56.550Z,2.72
2022-11-17T01:19:24.652Z,2.47
2022-11-17T01:21:51.730Z,2.33
2022-11-17T01:24:19.053Z,2.42
2022-11-17T01:26:46.886Z,3.10
2022-11-17T01:29:18.949Z,2.90
2022-11-17T01:31:51.390Z,2.53
2022-11-17T01:34:19.468Z,2.70
2022-11-17T01:37:05.487Z,2.53
2022-11-17T01:39:32.733Z,2.70
2022-11-17T01:42:11.858Z,3.17
2022-11-17T01:44:55.536Z,2.80
2022-11-17T01:47:25.424Z,2.95
2022-11-17T01:50:01.041Z,2.83
2022-11-17T01:52:31.721Z,3.10
2022-11-17T01:55:02.997Z,3.38
2022-11-17T01:57:59.996Z,3.93
2022-11-17T02:00:28.274Z,3.25
2022-11-17T02:02:56.022Z,2.83
2022-11-17T02:05:30.857Z,2.90
2022-11-17T02:08:02.068Z,2.90
2022-11-17T02:10:31.632Z,2.70
2022-11-17T02:13:01.534Z,2.05
2022-11-17T02:15:31.929Z,2.70
2022-11-17T02:18:00.440Z,2.70
2022-11-17T02:21:02.557Z,2.85
2022-11-17T02:23:57.213Z,2.35
2022-11-17T02:26:58.823Z,2.58
2022-11-17T02:29:48.278Z,2.33
2022-11-17T02:32:34.183Z,2.25
2022-11-17T02:35:13.120Z,2.28
2022-11-17T02:38:01.435Z,2.30
2022-11-17T02:41:06.851Z,2.05
2022-11-17T02:44:20.466Z,2.53
2022-11-17T02:47:01.810Z,2.67
2022-11-17T02:49:45.432Z,2.50
2022-11-17T02:52:14.497Z,2.45
2022-11-17T02:54:43.631Z,2.20
2022-11-17T02:57:40.204Z,2.08
2022-11-17T03:00:18.942Z,2.50
2022-11-17T03:03:07.202Z,2.72
2022-11-17T03:05:54.397Z,2.50
2022-11-17T03:08:47.835Z,2.60
2022-11-17T03:11:15.111Z,2.50
2022-11-17T03:13:57.509Z,2.92
2022-11-17T03:17:09.601Z,2.42
2022-11-17T03:20:02.296Z,3.10
2022-11-17T03:22:57.309Z,2.97
2022-11-17T03:25:32.262Z,2.80
2022-11-17T03:28:06.768Z,2.88
2022-11-17T03:30:40.264Z,2.47
2022-11-17T03:33:17.617Z,2.80
2022-11-17T03:36:07.129Z,2.47
2022-11-17T03:38:44.977Z,2.60
2022-11-17T03:41:15.569Z,2.78
2022-11-17T03:43:49.622Z,2.53
2022-11-17T03:46:22.131Z,2.95
2022-11-17T03:49:20.830Z,2.50
2022-11-17T03:51:47.861Z,3.00
2022-11-17T03:54:15.841Z,2.35
2022-11-17T03:57:17.061Z,2.58
2022-11-17T04:00:10.371Z,2.72
2022-11-17T04:02:40.574Z,2.95
2022-11-17T04:05:08.690Z,2.58
2022-11-17T04:07:42.369Z,2.53
2022-11-17T04:10:13.630Z,2.40
2022-11-17T04:13:01.625Z,2.67
2022-11-17T04:15:47.921Z,2.85
2022-11-17T04:18:15.531Z,2.95
2022-11-17T04:20:43.312Z,2.72
2022-11-17T04:23:14.373Z,2.60
2022-11-17T04:26:04.840Z,2.50
2022-11-17T04:28:37.222Z,2.33
2022-11-17T04:31:29.234Z,3.40
2022-11-17T04:33:58.542Z,3.08
2022-11-17T04:36:29.453Z,2.90
2022-11-17T04:38:59.457Z,3.05
2022-11-17T04:41:47.435Z,3.42
2022-11-17T04:44:17.526Z,4.18
2022-11-17T04:46:48.719Z,2.97
2022-11-17T04:49:17.876Z,3.20
2022-11-17T04:51:45.513Z,2.85
2022-11-17T04:54:16.766Z,3.67
2022-11-17T04:56:44.410Z,3.80
2022-11-17T04:59:11.699Z,3.38
2022-11-17T05:01:39.204Z,3.78
2022-11-17T05:04:12.669Z,3.63
2022-11-17T05:06:45.076Z,3.97
2022-11-17T05:09:15.838Z,3.95
2022-11-17T05:12:02.222Z,3.03
2022-11-17T05:14:29.744Z,3.60
2022-11-17T05:17:10.532Z,3.03
2022-11-17T05:19:47.217Z,3.42
2022-11-17T05:22:41.759Z,3.30
2022-11-17T05:25:10.008Z,3.33
2022-11-17T05:27:37.343Z,3.55
2022-11-17T05:30:07.572Z,4.03
2022-11-17T05:32:34.781Z,3.35
2022-11-17T05:35:04.675Z,4.22
2022-11-17T05:37:31.657Z,3.63
2022-11-17T05:39:58.675Z,3.45
2022-11-17T05:42:28.145Z,4.30
2022-11-17T05:44:55.357Z,4.95
2022-11-17T05:47:22.404Z,4.50
2022-11-17T05:49:49.387Z,4.15
2022-11-17T05:52:16.438Z,4.82
2022-11-17T05:54:43.475Z,4.18
2022-11-17T05:57:16.936Z,3.80
2022-11-17T05:59:56.282Z,3.60
2022-11-17T06:02:30.647Z,3.10
2022-11-17T06:04:57.613Z,3.63
2022-11-17T06:07:24.839Z,4.43
2022-11-17T06:09:53.391Z,4.07
2022-11-17T06:12:20.801Z,4.10
2022-11-17T06:14:47.917Z,3.97
2022-11-17T06:17:28.213Z,3.83
2022-11-17T06:20:08.757Z,4.00
2022-11-17T06:22:36.537Z,4.15
2022-11-17T06:25:05.910Z,4.50
2022-11-17T06:27:34.016Z,3.72
2022-11-17T06:30:06.730Z,4.10
2022-11-17T06:32:37.276Z,4.72
2022-11-17T06:35:10.690Z,5.00
2022-11-17T06:37:37.710Z,4.55
2022-11-17T06:40:05.753Z,3.72
2022-11-17T06:42:51.037Z,4.30
2022-11-17T06:45:18.313Z,4.07
2022-11-17T06:47:54.305Z,4.10
2022-11-17T06:50:23.392Z,4.97
2022-11-17T06:52:56.031Z,5.25
2022-11-17T06:55:23.116Z,5.35
2022-11-17T06:57:53.363Z,4.20
2022-11-17T07:00:21.337Z,4.32
2022-11-17T07:02:48.435Z,4.13
2022-11-17T07:05:18.072Z,4.25
2022-11-17T07:07:45.194Z,4.55
2022-11-17T07:10:14.574Z,5.07
2022-11-17T07:12:41.644Z,4.60
2022-11-17T07:15:09.355Z,5.05
2022-11-17T07:17:36.360Z,4.45
2022-11-17T07:20:04.242Z,4.65
2022-11-17T07:22:33.777Z,4.45
2022-11-17T07:25:00.739Z,5.00
2022-11-17T07:27:27.910Z,4.28
2022-11-17T07:29:54.965Z,4.15
2022-11-17T07:32:22.135Z,3.95
2022-11-17T07:34:49.530Z,4.18
2022-11-17T07:37:17.208Z,3.92
2022-11-17T07:39:44.351Z,4.00
2022-11-17T07:42:11.378Z,4.22
2022-11-17T07:44:38.445Z,3.90
2022-11-17T07:47:05.699Z,5.55
2022-11-17T07:49:32.836Z,5.68
2022-11-17T07:52:02.386Z,4.72
2022-11-17T07:54:29.535Z,5.20
2022-11-17T07:56:56.620Z,4.40
2022-11-17T07:59:23.774Z,4.85
2022-11-17T08:01:50.822Z,5.35
2022-11-17T08:04:20.698Z,5.22
2022-11-17T08:06:47.772Z,6.07
2022-11-17T08:09:16.286Z,5.53
2022-11-17T08:11:45.780Z,5.03
2022-11-17T08:14:12.880Z,6.10
2022-11-17T08:16:39.948Z,7.38
2022-11-17T08:19:12.126Z,5.38
2022-11-17T08:21:40.124Z,5.40
2022-11-17T08:24:09.726Z,4.72
2022-11-17T08:26:36.989Z,5.00
2022-11-17T08:29:04.471Z,6.63
2022-11-17T08:31:31.563Z,5.88
2022-11-17T08:33:58.537Z,5.55
2022-11-17T08:36:25.547Z,6.60
2022-11-17T08:38:52.583Z,6.32
2022-11-17T08:41:19.993Z,6.45
2022-11-17T08:43:47.139Z,6.47
2022-11-17T08:46:17.135Z,6.85
2022-11-17T08:48:52.254Z,6.35
2022-11-17T08:51:22.759Z,5.80
2022-11-17T08:53:52.228Z,6.88
2022-11-17T08:56:19.402Z,8.70
2022-11-17T08:58:46.570Z,7.45
2022-11-17T09:01:16.071Z,7.18
2022-11-17T09:03:45.983Z,8.38
2022-11-17T09:06:15.892Z,6.38
2022-11-17T09:08:46.231Z,6.63
2022-11-17T09:11:14.618Z,6.07
2022-11-17T09:13:42.284Z,6.13
2022-11-17T09:16:11.761Z,6.25
2022-11-17T09:18:39.808Z,5.30
2022-11-17T09:21:15.303Z,5.47
2022-11-17T09:23:42.958Z,5.18
2022-11-17T09:26:13.254Z,6.45
2022-11-17T09:28:43.226Z,5.50
2022-11-17T09:31:19.843Z,6.40
2022-11-17T09:33:47.141Z,6.95
2022-11-17T09:36:16.267Z,6.53
2022-11-17T09:38:47.179Z,7.15
2022-11-17T09:41:43.554Z,6.43
2022-11-17T09:44:32.067Z,6.05
2022-11-17T09:47:38.553Z,7.10
2022-11-17T09:50:27.231Z,6.78
2022-11-17T09:53:23.897Z,5.25
2022-11-17T09:56:13.560Z,3.90
2022-11-17T09:58:55.332Z,5.78
2022-11-17T10:01:23.278Z,9.13
2022-11-17T10:03:51.377Z,6.63
2022-11-17T10:06:25.389Z,6.75
2022-11-17T10:09:10.293Z,6.90
2022-11-17T10:11:41.485Z,6.47
2022-11-17T10:14:08.370Z,6.35
2022-11-17T10:16:51.012Z,5.78
2022-11-17T10:19:25.505Z,6.68
2022-11-17T10:22:20.697Z,6.75
2022-11-17T10:24:55.039Z,7.32
2022-11-17T10:27:34.281Z,6.00
2022-11-17T10:30:24.486Z,6.40
2022-11-17T10:33:00.949Z,5.05
2022-11-17T10:35:35.804Z,5.47
2022-11-17T10:38:20.940Z,6.45
2022-11-17T10:40:52.966Z,6.90
2022-11-17T10:43:30.931Z,5.82
2022-11-17T10:46:12.577Z,6.80
2022-11-17T10:48:53.420Z,5.05
2022-11-17T10:51:26.972Z,5.15
2022-11-17T10:54:21.015Z,6.15
2022-11-17T10:56:57.559Z,6.70
2022-11-17T11:00:05.301Z,6.35
2022-11-17T11:02:40.254Z,6.53
2022-11-17T11:05:08.898Z,5.57
2022-11-17T11:07:36.979Z,8.02
2022-11-17T11:10:31.895Z,7.03
2022-11-17T11:13:29.571Z,6.60
2022-11-17T11:15:56.661Z,6.20
2022-11-17T11:18:23.864Z,6.20
2022-11-17T11:21:02.702Z,5.68
2022-11-17T11:23:54.636Z,7.55
2022-11-17T11:27:01.680Z,6.68
2022-11-17T11:29:57.848Z,6.75
2022-11-17T11:33:07.462Z,6.68
2022-11-17T11:36:15.294Z,7.85
2022-11-17T11:38:51.395Z,6.20
2022-11-17T11:42:06.402Z,6.05
2022-11-17T11:44:53.004Z,5.80
2022-11-17T11:47:38.046Z,5.40
2022-11-17T11:50:27.267Z,6.03
2022-11-17T11:53:23.634Z,5.95
2022-11-17T11:56:06.084Z,6.03
2022-11-17T12:01:01.104Z,5.85
2022-11-17T12:03:46.466Z,7.85
2022-11-17T12:06:35.847Z,7.00
2022-11-17T12:09:19.223Z,5.60
2022-11-17T12:12:02.676Z,4.95
2022-11-17T12:14:36.432Z,6.03
2022-11-17T12:17:26.275Z,6.53
2022-11-17T12:20:07.494Z,8.40
2022-11-17T12:22:37.429Z,5.63
2022-11-17T12:25:29.131Z,6.93
2022-11-17T12:27:56.252Z,8.50
2022-11-17T12:30:36.745Z,5.57
2022-11-17T12:33:08.627Z,5.35
2022-11-17T12:35:37.249Z,6.78
2022-11-17T12:38:20.068Z,5.85
2022-11-17T12:40:51.644Z,6.10
2022-11-17T12:43:29.918Z,5.82
2022-11-17T12:46:03.619Z,6.60
2022-11-17T12:48:34.808Z,9.25
2022-11-17T12:51:29.403Z,8.23
2022-11-17T12:54:21.074Z,7.22
2022-11-17T12:56:51.912Z,8.60
2022-11-17T13:00:10.776Z,6.90
2022-11-17T13:03:22.273Z,4.88
2022-11-17T13:09:12.380Z,6.10
2022-11-17T13:11:41.858Z,7.35
2022-11-17T13:14:16.726Z,6.93
2022-11-17T13:16:50.851Z,6.50
2022-11-17T13:19:41.454Z,5.32
2022-11-17T13:22:11.455Z,6.22
2022-11-17T13:24:47.412Z,6.82
2022-11-17T13:27:32.852Z,7.03
2022-11-17T13:30:21.716Z,7.60
2022-11-17T13:32:49.590Z,7.07
2022-11-17T13:35:29.861Z,8.57
2022-11-17T13:38:12.208Z,7.20
2022-11-17T13:43:17.313Z,6.03
2022-11-17T13:45:45.822Z,7.82
2022-11-17T13:48:35.588Z,9.05
2022-11-17T13:51:20.762Z,8.65
2022-11-17T13:53:59.197Z,7.95
2022-11-17T13:56:36.715Z,7.32
2022-11-17T13:59:26.175Z,7.80
2022-11-17T14:02:20.862Z,7.05
2022-11-17T14:05:15.088Z,8.38
2022-11-17T14:07:44.441Z,8.25
2022-11-17T14:10:15.222Z,8.02
2022-11-17T14:12:45.195Z,8.25
2022-11-17T14:15:27.506Z,11.95
2022-11-17T14:18:00.163Z,9.63
2022-11-17T14:20:35.895Z,9.02
2022-11-17T14:23:02.934Z,10.23
2022-11-17T14:25:39.401Z,7.80
2022-11-17T14:28:19.250Z,8.75
2022-11-17T14:30:52.312Z,8.70
2022-11-17T14:33:20.699Z,9.32
2022-11-17T14:35:55.026Z,10.60
2022-11-17T14:38:22.455Z,11.15
2022-11-17T14:40:52.275Z,14.38
2022-11-17T14:43:21.116Z,9.38
2022-11-17T14:45:49.781Z,8.18
2022-11-17T14:48:20.337Z,13.50
2022-11-17T14:50:48.391Z,11.10
2022-11-17T14:53:17.549Z,9.73
2022-11-17T14:55:47.507Z,9.32
2022-11-17T14:58:15.159Z,8.98
2022-11-17T15:00:44.657Z,9.90
2022-11-17T15:03:11.805Z,9.68
2022-11-17T15:05:46.195Z,7.82
2022-11-17T15:08:18.179Z,9.43
2022-11-17T15:10:45.957Z,8.73
2022-11-17T15:13:13.067Z,10.50
2022-11-17T15:15:40.175Z,12.23
2022-11-17T15:18:12.843Z,14.10
2022-11-17T15:20:39.902Z,13.93
2022-11-17T15:23:06.916Z,12.73
2022-11-17T15:25:33.945Z,14.00
2022-11-17T15:28:01.024Z,11.88
2022-11-17T15:30:28.278Z,13.30
2022-11-17T15:32:55.347Z,11.48
2022-11-17T15:35:22.332Z,11.07
2022-11-17T15:37:49.395Z,10.82
2022-11-17T15:40:19.572Z,10.05
2022-11-17T15:42:46.785Z,10.00
2022-11-17T15:45:13.962Z,7.95
2022-11-17T15:47:40.981Z,10.48
2022-11-17T15:50:08.813Z,10.55
2022-11-17T15:53:02.329Z,10.50
2022-11-17T15:55:22.842Z,11.38
2022-11-17T15:57:54.669Z,11.23
2022-11-17T16:00:21.946Z,11.98
2022-11-17T16:02:55.804Z,11.48
2022-11-17T16:05:25.585Z,16.15
2022-11-17T16:07:52.688Z,36.55
2022-11-17T16:10:19.722Z,39.50
2022-11-17T16:12:49.534Z,74.13
2022-11-17T16:15:19.601Z,43.28
2022-11-17T16:17:46.603Z,48.40
2022-11-17T16:20:14.206Z,28.65
2022-11-17T16:22:41.218Z,27.90
2022-11-17T16:25:10.678Z,28.98
2022-11-17T16:27:37.743Z,26.10
2022-11-17T16:30:05.241Z,23.17
2022-11-17T16:32:32.386Z,20.00
2022-11-17T16:35:01.482Z,22.67
2022-11-17T16:37:28.542Z,20.80
2022-11-17T16:39:56.408Z,21.98
2022-11-17T16:42:23.417Z,25.30
2022-11-17T16:44:50.603Z,23.75
2022-11-17T16:47:17.606Z,28.73
2022-11-17T16:49:47.851Z,25.48
2022-11-17T16:52:17.642Z,23.48
2022-11-17T16:54:44.638Z,22.88
2022-11-17T16:57:11.658Z,22.95
2022-11-17T16:59:41.315Z,21.90
2022-11-17T17:02:15.503Z,26.10
2022-11-17T17:04:42.478Z,24.65
2022-11-17T17:07:09.555Z,29.05
2022-11-17T17:09:37.868Z,28.33
2022-11-17T17:12:05.675Z,35.08
2022-11-17T17:14:32.684Z,38.50
2022-11-17T17:17:02.298Z,37.38
2022-11-17T17:19:29.579Z,32.22
2022-11-17T17:21:56.784Z,29.58
2022-11-17T17:24:23.805Z,29.58
2022-11-17T17:26:50.810Z,30.88
2022-11-17T17:29:18.283Z,31.83
2022-11-17T17:31:45.564Z,29.30
2022-11-17T17:34:13.378Z,28.85
2022-11-17T17:36:45.684Z,30.50
2022-11-17T17:39:15.680Z,31.02
2022-11-17T17:41:44.531Z,19.05
2022-11-17T17:44:18.713Z,19.63
2022-11-17T17:46:46.860Z,19.30
2022-11-17T17:49:14.644Z,22.67
2022-11-17T17:51:44.443Z,23.90
2022-11-17T17:54:21.460Z,23.48
2022-11-17T17:56:48.596Z,22.42
2022-11-17T17:59:16.821Z,22.08
2022-11-17T18:01:46.281Z,20.92
2022-11-17T18:04:16.086Z,21.52
2022-11-17T18:06:48.794Z,21.35
2022-11-17T18:11:50.821Z,23.88
2022-11-17T18:14:23.941Z,23.38
2022-11-17T18:16:54.336Z,25.65
2022-11-17T18:19:22.288Z,26.40
2022-11-17T18:21:49.504Z,32.03
2022-11-17T18:24:16.570Z,30.20
2022-11-17T18:26:43.850Z,30.58
2022-11-17T18:29:18.541Z,30.85
2022-11-17T18:31:47.539Z,37.47
2022-11-17T18:34:22.991Z,37.55
2022-11-17T18:36:58.073Z,38.00
2022-11-17T18:39:25.320Z,40.03
2022-11-17T18:41:52.376Z,34.55
2022-11-17T18:44:19.803Z,38.10
2022-11-17T18:46:49.435Z,42.75
2022-11-17T18:49:16.929Z,46.70
2022-11-17T18:51:46.340Z,47.60
2022-11-17T18:54:16.026Z,41.60
2022-11-17T18:56:46.905Z,36.80
2022-11-17T18:59:14.347Z,32.70
2022-11-17T19:01:43.326Z,32.75
2022-11-17T19:04:13.997Z,33.30
2022-11-17T19:06:41.335Z,31.90
2022-11-17T19:09:08.597Z,30.65
2022-11-17T19:11:35.849Z,30.23
2022-11-17T19:14:05.266Z,29.73
2022-11-17T19:16:33.432Z,27.13
2022-11-17T19:19:00.710Z,27.42
2022-11-17T19:21:36.006Z,26.98
2022-11-17T19:24:07.818Z,25.02
2022-11-17T19:26:36.255Z,25.75
2022-11-17T19:29:16.140Z,24.50
2022-11-17T19:31:47.506Z,26.52
2022-11-17T19:34:16.065Z,29.23
2022-11-17T19:36:45.350Z,28.70
2022-11-17T19:39:14.197Z,28.55
2022-11-17T19:41:42.219Z,31.40
2022-11-17T19:44:10.002Z,31.40
2022-11-17T19:46:37.582Z,30.23
2022-11-17T19:49:06.294Z,28.88
2022-11-17T19:51:41.975Z,27.60
2022-11-17T19:54:11.838Z,28.13
2022-11-17T19:56:38.978Z,27.98
2022-11-17T19:59:09.701Z,29.67
2022-11-17T20:01:39.668Z,27.55
2022-11-17T20:04:07.426Z,29.75
2022-11-17T20:06:38.569Z,31.42
2022-11-17T20:09:14.981Z,30.75
2022-11-17T20:11:42.907Z,33.10
2022-11-17T20:14:10.919Z,34.90
2022-11-17T20:16:40.490Z,35.13
2022-11-17T20:19:08.696Z,32.72
2022-11-17T20:21:35.818Z,32.40
2022-11-17T20:24:03.377Z,36.03
2022-11-17T20:26:33.922Z,41.90
2022-11-17T20:29:03.256Z,40.67
2022-11-17T20:31:33.629Z,40.08
2022-11-17T20:34:03.782Z,42.22
2022-11-17T20:36:34.015Z,39.05
2022-11-17T20:39:05.602Z,39.35
2022-11-17T20:41:33.012Z,40.60
2022-11-17T20:44:26.721Z,37.90
2022-11-17T20:46:58.088Z,33.58
2022-11-17T20:49:27.940Z,35.38
2022-11-17T20:52:03.225Z,34.83
2022-11-17T20:54:36.276Z,36.17
2022-11-17T20:57:10.048Z,41.28
2022-11-17T20:59:37.516Z,40.08
2022-11-17T21:02:04.631Z,39.92
2022-11-17T21:04:32.010Z,41.58
2022-11-17T21:07:01.968Z,39.72
2022-11-17T21:09:29.090Z,40.75
2022-11-17T21:11:59.394Z,42.33
2022-11-17T21:14:27.665Z,42.33
2022-11-17T21:16:57.626Z,37.92
2022-11-17T21:19:24.770Z,41.13
2022-11-17T21:21:53.445Z,37.30
2022-11-17T21:24:22.074Z,34.67
2022-11-17T21:26:51.507Z,32.33
2022-11-17T21:29:18.687Z,30.67
2022-11-17T21:31:46.408Z,29.60
2022-11-17T21:34:17.408Z,28.77
2022-11-17T21:36:44.855Z,26.58
2022-11-17T21:39:18.260Z,27.13
2022-11-17T21:41:48.357Z,27.83
2022-11-17T21:44:15.523Z,28.70
2022-11-17T21:46:42.584Z,28.65
2022-11-17T21:49:09.724Z,30.15
2022-11-17T21:51:38.691Z,29.35
2022-11-17T21:54:09.795Z,28.10
2022-11-17T21:56:37.237Z,28.92
2022-11-17T21:59:10.221Z,26.98
2022-11-17T22:01:37.804Z,27.02
2022-11-17T22:04:05.058Z,26.88
2022-11-17T22:06:34.565Z,29.42
2022-11-17T22:09:01.609Z,26.80
2022-11-17T22:11:38.200Z,29.90
2022-11-17T22:14:19.280Z,28.30
2022-11-17T22:16:47.686Z,28.10
2022-11-17T22:19:17.257Z,29.92
2022-11-17T22:21:47.118Z,28.95
2022-11-17T22:24:14.299Z,32.38
2022-11-17T22:26:44.233Z,31.30
2022-11-17T22:29:21.263Z,31.10
2022-11-17T22:31:53.438Z,31.70
2022-11-17T22:34:22.976Z,33.70
2022-11-17T22:36:52.329Z,31.77
2022-11-17T22:39:19.785Z,29.25
2022-11-17T22:41:47.032Z,29.52
2022-11-17T22:44:18.239Z,30.15
2022-11-17T22:46:45.770Z,29.63
2022-11-17T22:49:13.610Z,29.75
2022-11-17T22:51:59.766Z,29.05
2022-11-17T22:54:26.890Z,29.25
2022-11-17T22:56:54.374Z,30.15
2022-11-17T22:59:24.740Z,29.98
2022-11-17T23:01:51.889Z,30.75
2022-11-17T23:04:20.917Z,29.52
2022-11-17T23:06:48.177Z,31.65
2022-11-17T23:09:16.043Z,30.58
2022-11-17T23:11:49.507Z,33.05
2022-11-17T23:14:16.995Z,29.98
2022-11-17T23:16:44.228Z,29.98
2022-11-17T23:19:14.838Z,29.45
2022-11-17T23:21:44.695Z,29.02
2022-11-17T23:24:15.015Z,29.27
2022-11-17T23:26:42.701Z,27.92
2022-11-17T23:29:10.358Z,25.25
2022-11-17T23:31:37.711Z,26.08
2022-11-17T23:34:04.940Z,25.08
2022-11-17T23:36:32.158Z,24.85
2022-11-17T23:38:59.610Z,25.30
2022-11-17T23:41:26.932Z,23.05
2022-11-17T23:43:54.923Z,24.00
2022-11-17T23:46:25.247Z,22.60
2022-11-17T23:48:53.273Z,23.42
2022-11-17T23:51:23.020Z,21.40
2022-11-17T23:53:52.792Z,21.58
2022-11-17T23:56:21.898Z,20.08
2022-11-17T23:58:51.446Z,20.50
